createdAt,value
2022-10-29T00:01:01.150Z,2.75
2022-10-29T00:03:02.809Z,2.75
2022-10-29T00:05:04.727Z,2.60
2022-10-29T00:07:06.309Z,3.28
2022-10-29T00:09:07.922Z,2.72
2022-10-29T00:11:13.958Z,2.92
2022-10-29T00:13:15.533Z,2.60
2022-10-29T00:15:17.282Z,2.33
2022-10-29T00:17:19.204Z,3.25
2022-10-29T00:19:20.779Z,2.95
2022-10-29T00:21:25.975Z,2.97
2022-10-29T00:23:27.536Z,3.28
2022-10-29T00:25:29.140Z,3.28
2022-10-29T00:27:30.781Z,2.85
2022-10-29T00:29:32.427Z,3.60
2022-10-29T00:31:34.204Z,2.92
2022-10-29T00:33:35.872Z,3.30
2022-10-29T00:35:37.488Z,3.25
2022-10-29T00:37:40.896Z,2.58
2022-10-29T00:39:42.517Z,3.15
2022-10-29T00:41:44.503Z,2.90
2022-10-29T00:43:51.592Z,2.70
2022-10-29T00:45:59.959Z,2.30
2022-10-29T00:48:01.688Z,2.75
2022-10-29T00:50:08.422Z,2.83
2022-10-29T00:52:10.565Z,2.72
2022-10-29T00:54:13.737Z,3.28
2022-10-29T00:56:15.630Z,3.53
2022-10-29T00:58:17.385Z,2.60
2022-10-29T01:00:20.274Z,2.20
2022-10-29T01:02:23.112Z,3.08
2022-10-29T01:04:25.564Z,2.83
2022-10-29T01:06:31.816Z,3.08
2022-10-29T01:08:33.458Z,2.63
2022-10-29T01:11:16.370Z,3.03
2022-10-29T01:13:26.451Z,2.60
2022-10-29T01:15:37.318Z,3.60
2022-10-29T01:18:05.494Z,3.88
2022-10-29T01:20:52.006Z,3.70
2022-10-29T01:23:03.591Z,3.47
2022-10-29T01:25:22.404Z,2.40
2022-10-29T01:27:48.850Z,2.45
2022-10-29T01:30:00.561Z,2.53
2022-10-29T01:32:11.144Z,2.22
2022-10-29T01:34:40.525Z,3.03
2022-10-29T01:36:48.829Z,3.03
2022-10-29T01:38:53.584Z,2.55
2022-10-29T01:41:01.695Z,2.83
2022-10-29T01:43:39.798Z,2.50
2022-10-29T01:45:49.910Z,3.13
2022-10-29T01:48:15.792Z,3.22
2022-10-29T01:50:20.246Z,2.50
2022-10-29T01:52:22.581Z,2.47
2022-10-29T01:54:24.341Z,2.85
2022-10-29T01:56:26.312Z,2.20
2022-10-29T01:58:28.056Z,2.58
2022-10-29T02:00:37.988Z,2.42
2022-10-29T02:03:16.278Z,3.35
2022-10-29T02:05:33.337Z,2.97
2022-10-29T02:07:38.051Z,2.78
2022-10-29T02:09:39.629Z,2.90
2022-10-29T02:12:03.804Z,3.28
2022-10-29T02:14:10.387Z,3.25
2022-10-29T02:16:12.662Z,2.65
2022-10-29T02:18:14.668Z,4.15
2022-10-29T02:20:17.295Z,2.80
2022-10-29T02:22:19.005Z,3.00
2022-10-29T02:24:20.590Z,2.75
2022-10-29T02:26:22.258Z,3.90
2022-10-29T02:28:23.931Z,3.17
2022-10-29T02:30:25.627Z,3.03
2022-10-29T02:32:27.514Z,3.42
2022-10-29T02:34:29.125Z,2.95
2022-10-29T02:36:30.745Z,3.92
2022-10-29T02:38:32.350Z,2.83
2022-10-29T02:40:34.054Z,4.22
2022-10-29T02:42:35.679Z,3.17
2022-10-29T02:44:37.276Z,2.97
2022-10-29T02:46:39.877Z,2.15
2022-10-29T02:48:41.899Z,3.15
2022-10-29T02:50:43.507Z,3.42
2022-10-29T02:52:45.183Z,2.92
2022-10-29T02:54:46.818Z,3.35
2022-10-29T02:56:48.412Z,2.97
2022-10-29T02:58:50.039Z,2.75
2022-10-29T03:00:52.461Z,3.72
2022-10-29T03:02:54.503Z,2.72
2022-10-29T03:04:56.381Z,3.47
2022-10-29T03:07:02.539Z,2.55
2022-10-29T03:09:04.725Z,8.70
2022-10-29T03:11:06.330Z,3.35
2022-10-29T03:13:07.980Z,2.95
2022-10-29T03:15:10.018Z,2.90
2022-10-29T03:17:11.642Z,2.28
2022-10-29T03:19:13.262Z,2.50
2022-10-29T03:21:14.900Z,3.13
2022-10-29T03:23:16.616Z,3.38
2022-10-29T03:25:18.227Z,3.50
2022-10-29T03:27:19.972Z,3.42
2022-10-29T03:29:21.578Z,2.80
2022-10-29T03:31:23.195Z,3.83
2022-10-29T03:33:26.757Z,3.33
2022-10-29T03:35:28.436Z,2.55
2022-10-29T03:37:30.075Z,3.22
2022-10-29T03:39:31.709Z,3.90
2022-10-29T03:41:33.296Z,2.88
2022-10-29T03:43:36.314Z,2.55
2022-10-29T03:45:37.942Z,4.32
2022-10-29T03:47:39.671Z,3.05
2022-10-29T03:49:41.294Z,3.75
2022-10-29T03:51:42.913Z,3.22
2022-10-29T03:53:44.658Z,3.17
2022-10-29T03:55:46.257Z,2.90
2022-10-29T03:57:47.901Z,3.10
2022-10-29T03:59:52.443Z,3.50
2022-10-29T04:01:54.558Z,4.18
2022-10-29T04:03:56.369Z,3.50
2022-10-29T04:05:59.074Z,3.72
2022-10-29T04:08:00.712Z,3.83
2022-10-29T04:10:02.447Z,3.03
2022-10-29T04:12:04.459Z,3.05
2022-10-29T04:14:06.243Z,2.97
2022-10-29T04:16:07.937Z,4.03
2022-10-29T04:18:10.307Z,2.83
2022-10-29T04:20:27.293Z,3.30
2022-10-29T04:28:17.845Z,3.15
2022-10-29T04:29:38.912Z,3.20
2022-10-29T04:31:40.534Z,3.55
2022-10-29T04:33:42.168Z,3.30
2022-10-29T04:35:43.791Z,2.67
2022-10-29T04:37:45.390Z,3.47
2022-10-29T04:39:46.952Z,2.53
2022-10-29T04:41:49.663Z,3.22
2022-10-29T04:43:51.242Z,3.10
2022-10-29T04:45:53.901Z,2.97
2022-10-29T04:48:05.634Z,3.55
2022-10-29T04:50:07.563Z,2.83
2022-10-29T04:52:09.279Z,3.08
2022-10-29T04:54:10.923Z,3.22
2022-10-29T04:56:12.483Z,3.85
2022-10-29T04:58:19.317Z,3.85
2022-10-29T05:00:21.764Z,2.90
2022-10-29T05:02:23.342Z,3.17
2022-10-29T05:04:24.933Z,3.35
2022-10-29T05:06:26.522Z,3.78
2022-10-29T05:08:28.172Z,3.85
2022-10-29T05:10:34.628Z,3.00
2022-10-29T05:12:36.227Z,3.70
2022-10-29T05:14:37.819Z,4.15
2022-10-29T05:16:39.485Z,2.85
2022-10-29T05:18:41.173Z,2.47
2022-10-29T05:20:42.891Z,3.38
2022-10-29T05:22:44.578Z,3.50
2022-10-29T05:24:46.167Z,3.15
2022-10-29T05:26:47.797Z,3.53
2022-10-29T05:28:51.363Z,3.55
2022-10-29T05:30:53.770Z,3.30
2022-10-29T05:32:55.924Z,3.53
2022-10-29T05:34:57.828Z,3.60
2022-10-29T05:36:59.457Z,2.95
2022-10-29T05:39:01.235Z,3.72
2022-10-29T05:41:03.130Z,2.85
2022-10-29T05:43:05.136Z,3.00
2022-10-29T05:45:07.211Z,2.47
2022-10-29T05:47:09.061Z,2.95
2022-10-29T05:49:12.682Z,3.13
2022-10-29T05:51:14.259Z,3.47
2022-10-29T05:53:15.863Z,2.42
2022-10-29T05:55:17.449Z,2.78
2022-10-29T05:57:20.799Z,3.03
2022-10-29T05:59:22.462Z,2.95
2022-10-29T06:01:24.204Z,3.65
2022-10-29T06:03:25.928Z,3.40
2022-10-29T06:05:28.537Z,3.75
2022-10-29T06:07:30.192Z,2.83
2022-10-29T06:09:31.987Z,3.20
2022-10-29T06:11:33.600Z,4.38
2022-10-29T06:13:35.306Z,2.78
2022-10-29T06:15:37.109Z,4.07
2022-10-29T06:17:42.620Z,3.65
2022-10-29T06:19:44.271Z,3.78
2022-10-29T06:21:45.860Z,3.40
2022-10-29T06:23:47.482Z,4.15
2022-10-29T06:25:49.114Z,4.32
2022-10-29T06:28:05.294Z,3.17
2022-10-29T06:30:08.226Z,3.40
2022-10-29T06:32:09.842Z,3.72
2022-10-29T06:34:11.485Z,3.42
2022-10-29T06:36:13.113Z,3.33
2022-10-29T06:38:14.978Z,2.58
2022-10-29T06:40:16.708Z,2.70
2022-10-29T06:42:18.341Z,3.42
2022-10-29T06:44:20.012Z,4.18
2022-10-29T06:46:21.675Z,3.28
2022-10-29T06:48:23.425Z,3.72
2022-10-29T06:50:25.482Z,4.22
2022-10-29T06:52:27.097Z,4.28
2022-10-29T06:54:28.718Z,4.05
2022-10-29T06:56:30.668Z,4.15
2022-10-29T06:58:32.280Z,3.67
2022-10-29T07:00:35.097Z,4.22
2022-10-29T07:02:36.862Z,3.75
2022-10-29T07:04:38.477Z,3.33
2022-10-29T07:06:40.120Z,3.85
2022-10-29T07:08:41.756Z,3.25
2022-10-29T07:10:43.388Z,3.67
2022-10-29T07:12:45.270Z,4.00
2022-10-29T07:14:46.874Z,3.05
2022-10-29T07:16:48.544Z,3.45
2022-10-29T07:18:50.171Z,4.22
2022-10-29T07:20:51.820Z,3.78
2022-10-29T07:22:53.452Z,3.50
2022-10-29T07:24:57.177Z,4.00
2022-10-29T07:27:02.157Z,4.18
2022-10-29T07:29:03.880Z,3.85
2022-10-29T07:31:05.642Z,4.15
2022-10-29T07:33:07.264Z,4.18
2022-10-29T07:35:09.191Z,4.07
2022-10-29T07:37:10.743Z,4.20
2022-10-29T07:39:12.326Z,3.65
2022-10-29T07:41:13.952Z,3.72
2022-10-29T07:43:16.577Z,3.60
2022-10-29T07:45:18.210Z,2.67
2022-10-29T07:47:19.788Z,3.67
2022-10-29T07:49:21.418Z,3.78
2022-10-29T07:51:23.022Z,4.05
2022-10-29T07:53:24.931Z,3.60
2022-10-29T07:55:27.170Z,4.55
2022-10-29T07:57:29.193Z,3.65
2022-10-29T07:59:30.930Z,4.28
2022-10-29T08:01:32.894Z,3.67
2022-10-29T08:03:34.651Z,3.67
2022-10-29T08:05:36.300Z,2.97
2022-10-29T08:07:37.891Z,3.78
2022-10-29T08:09:40.307Z,3.35
2022-10-29T08:11:41.930Z,3.58
2022-10-29T08:13:43.579Z,4.85
2022-10-29T08:15:48.107Z,3.38
2022-10-29T08:17:50.292Z,3.28
2022-10-29T08:19:51.951Z,3.33
2022-10-29T08:21:53.535Z,3.58
2022-10-29T08:23:56.123Z,4.22
2022-10-29T08:25:58.663Z,3.90
2022-10-29T08:28:02.252Z,3.83
2022-10-29T08:30:05.846Z,4.65
2022-10-29T08:32:07.514Z,3.70
2022-10-29T08:34:11.300Z,4.38
2022-10-29T08:36:13.152Z,4.10
2022-10-29T08:38:15.237Z,4.18
2022-10-29T08:40:28.277Z,3.33
2022-10-29T08:42:57.882Z,3.10
2022-10-29T08:45:12.057Z,3.80
2022-10-29T08:47:21.665Z,3.47
2022-10-29T08:49:26.524Z,3.10
2022-10-29T08:51:40.163Z,2.97
2022-10-29T08:54:17.030Z,2.97
2022-10-29T08:56:19.747Z,2.50
2022-10-29T08:58:31.990Z,3.25
2022-10-29T09:00:37.039Z,2.85
2022-10-29T09:02:40.336Z,2.33
2022-10-29T09:04:41.982Z,3.17
2022-10-29T09:06:43.561Z,3.17
2022-10-29T09:09:01.334Z,3.05
2022-10-29T09:11:25.846Z,2.60
2022-10-29T09:13:36.394Z,2.90
2022-10-29T09:15:53.460Z,2.72
2022-10-29T09:18:10.130Z,2.15
2022-10-29T09:20:37.017Z,2.97
2022-10-29T09:22:53.865Z,2.58
2022-10-29T09:25:18.234Z,2.53
2022-10-29T09:27:50.662Z,1.92
2022-10-29T09:30:13.355Z,2.95
2022-10-29T09:32:17.888Z,2.20
2022-10-29T09:34:31.083Z,2.15
2022-10-29T09:36:32.913Z,2.70
2022-10-29T09:38:42.744Z,2.67
2022-10-29T09:40:44.975Z,2.90
2022-10-29T09:42:48.018Z,2.58
2022-10-29T09:44:50.953Z,2.50
2022-10-29T09:47:12.364Z,1.83
2022-10-29T09:49:50.866Z,2.40
2022-10-29T09:52:00.938Z,2.83
2022-10-29T09:54:02.804Z,2.65
2022-10-29T09:56:08.274Z,2.20
2022-10-29T09:58:18.736Z,2.85
2022-10-29T10:00:26.244Z,1.70
2022-10-29T10:02:39.129Z,2.00
2022-10-29T10:04:45.633Z,1.75
2022-10-29T10:07:10.878Z,1.75
2022-10-29T10:09:12.505Z,2.10
2022-10-29T10:11:19.119Z,2.00
2022-10-29T10:13:26.223Z,2.38
2022-10-29T10:15:35.410Z,2.85
2022-10-29T10:18:15.264Z,1.92
2022-10-29T10:21:07.489Z,2.25
2022-10-29T10:23:29.087Z,2.97
2022-10-29T10:25:39.056Z,2.45
2022-10-29T10:27:40.691Z,2.50
2022-10-29T10:29:42.271Z,3.67
2022-10-29T10:31:50.805Z,3.65
2022-10-29T10:33:54.564Z,3.13
2022-10-29T10:36:01.273Z,2.92
2022-10-29T10:38:14.840Z,3.25
2022-10-29T10:40:22.467Z,2.90
2022-10-29T10:42:39.491Z,2.28
2022-10-29T10:45:22.353Z,2.15
2022-10-29T10:47:27.010Z,3.15
2022-10-29T10:49:33.402Z,2.90
2022-10-29T10:51:37.033Z,2.67
2022-10-29T10:53:40.522Z,1.80
2022-10-29T10:55:48.119Z,2.75
2022-10-29T10:58:00.699Z,2.97
2022-10-29T11:00:08.329Z,2.33
2022-10-29T11:02:38.799Z,2.90
2022-10-29T11:04:41.601Z,2.42
2022-10-29T11:06:46.725Z,1.98
2022-10-29T11:08:58.861Z,2.53
2022-10-29T11:11:43.541Z,1.60
2022-10-29T11:13:45.416Z,2.33
2022-10-29T11:16:05.297Z,1.85
2022-10-29T11:20:23.320Z,2.88
2022-10-29T11:22:42.460Z,2.55
2022-10-29T11:24:57.215Z,1.75
2022-10-29T11:27:08.101Z,2.22
2022-10-29T11:29:21.911Z,2.25
2022-10-29T11:31:39.680Z,1.58
2022-10-29T11:33:49.025Z,1.70
2022-10-29T11:36:15.134Z,2.28
2022-10-29T11:38:31.780Z,2.00
2022-10-29T11:40:58.677Z,1.92
2022-10-29T11:43:05.828Z,1.77
2022-10-29T11:45:17.330Z,2.20
2022-10-29T11:47:29.869Z,2.10
2022-10-29T11:50:06.624Z,1.70
2022-10-29T11:52:10.890Z,1.90
2022-10-29T11:54:37.537Z,1.75
2022-10-29T11:56:50.328Z,1.63
2022-10-29T11:59:03.756Z,2.08
2022-10-29T12:01:12.956Z,1.98
2022-10-29T12:03:53.515Z,1.52
2022-10-29T12:06:16.520Z,1.60
2022-10-29T12:08:32.684Z,1.70
2022-10-29T12:11:10.679Z,1.70
2022-10-29T12:13:29.031Z,1.90
2022-10-29T12:15:56.834Z,1.88
2022-10-29T12:18:17.451Z,2.00
2022-10-29T12:20:55.151Z,1.73
2022-10-29T12:23:05.264Z,1.70
2022-10-29T12:25:42.661Z,1.77
2022-10-29T12:28:19.724Z,1.65
2022-10-29T12:30:23.446Z,2.25
2022-10-29T12:32:38.935Z,2.05
2022-10-29T12:35:07.597Z,1.95
2022-10-29T12:37:11.996Z,2.10
2022-10-29T12:39:30.251Z,2.10
2022-10-29T12:41:36.717Z,2.20
2022-10-29T12:43:39.551Z,1.45
2022-10-29T12:46:06.833Z,2.38
2022-10-29T12:48:23.765Z,1.98
2022-10-29T12:50:46.586Z,2.90
2022-10-29T12:53:03.572Z,9.52
2022-10-29T12:55:06.956Z,9.60
2022-10-29T12:57:14.594Z,5.85
2022-10-29T12:59:25.401Z,3.33
2022-10-29T13:01:50.070Z,3.30
2022-10-29T13:03:55.014Z,2.38
2022-10-29T13:05:56.634Z,2.83
2022-10-29T13:08:04.259Z,2.17
2022-10-29T13:10:24.702Z,2.08
2022-10-29T13:13:07.118Z,1.65
2022-10-29T13:15:15.579Z,1.42
2022-10-29T13:17:25.995Z,1.80
2022-10-29T13:19:36.796Z,1.45
2022-10-29T13:21:57.801Z,1.40
2022-10-29T13:24:03.990Z,1.45
2022-10-29T13:26:09.011Z,1.63
2022-10-29T13:28:10.652Z,2.22
2022-10-29T13:30:23.945Z,1.75
2022-10-29T13:32:36.435Z,1.95
2022-10-29T13:34:56.270Z,1.70
2022-10-29T13:37:36.090Z,1.83
2022-10-29T13:39:37.706Z,1.50
2022-10-29T13:41:42.826Z,1.40
2022-10-29T13:44:01.146Z,2.30
2022-10-29T13:46:08.500Z,1.55
2022-10-29T13:48:32.201Z,2.03
2022-10-29T13:50:34.768Z,1.90
2022-10-29T13:52:37.432Z,1.58
2022-10-29T13:54:57.211Z,1.33
2022-10-29T13:57:25.032Z,1.10
2022-10-29T13:59:40.489Z,2.47
2022-10-29T14:01:51.185Z,1.67
2022-10-29T14:04:06.468Z,2.28
2022-10-29T14:06:20.903Z,1.48
2022-10-29T14:08:41.212Z,3.28
2022-10-29T14:10:47.521Z,2.60
2022-10-29T14:12:52.226Z,2.78
2022-10-29T14:15:03.874Z,2.20
2022-10-29T14:17:13.352Z,2.42
2022-10-29T14:19:20.149Z,2.33
2022-10-29T14:21:27.425Z,2.22
2022-10-29T14:23:31.184Z,2.05
2022-10-29T14:25:35.985Z,1.88
2022-10-29T14:27:37.605Z,2.17
2022-10-29T14:29:39.516Z,2.92
2022-10-29T14:31:41.127Z,2.00
2022-10-29T14:33:44.400Z,2.22
2022-10-29T14:35:46.539Z,3.45
2022-10-29T14:37:48.857Z,5.38
2022-10-29T14:39:58.397Z,5.20
2022-10-29T14:42:01.275Z,5.03
2022-10-29T14:44:10.072Z,3.90
2022-10-29T14:46:22.828Z,3.95
2022-10-29T14:48:24.578Z,2.90
2022-10-29T14:50:28.305Z,3.58
2022-10-29T14:52:32.981Z,3.92
2022-10-29T14:54:38.777Z,2.65
2022-10-29T14:56:41.214Z,2.78
2022-10-29T14:58:42.955Z,3.05
2022-10-29T15:00:57.297Z,3.22
2022-10-29T15:02:59.551Z,3.13
2022-10-29T15:05:07.074Z,1.83
2022-10-29T15:07:24.287Z,2.53
2022-10-29T15:09:28.223Z,2.53
2022-10-29T15:11:42.528Z,1.73
2022-10-29T15:13:46.227Z,2.88
2022-10-29T15:16:13.148Z,2.50
2022-10-29T15:18:21.049Z,2.47
2022-10-29T15:20:25.336Z,2.15
2022-10-29T15:22:32.843Z,2.22
2022-10-29T15:24:34.610Z,2.45
2022-10-29T15:26:45.042Z,2.65
2022-10-29T15:28:48.741Z,2.40
2022-10-29T15:30:50.491Z,2.47
2022-10-29T15:32:58.833Z,2.63
2022-10-29T15:35:00.847Z,4.10
2022-10-29T15:37:42.098Z,3.22
2022-10-29T15:39:56.698Z,2.88
2022-10-29T15:42:00.253Z,2.45
2022-10-29T15:44:01.949Z,2.83
2022-10-29T15:46:04.358Z,3.22
2022-10-29T15:48:08.495Z,2.78
2022-10-29T15:50:12.130Z,2.65
2022-10-29T15:52:17.753Z,2.65
2022-10-29T15:54:19.510Z,2.85
2022-10-29T15:56:21.145Z,2.80
2022-10-29T15:58:23.344Z,3.15
2022-10-29T16:00:25.022Z,3.45
2022-10-29T16:02:26.909Z,2.53
2022-10-29T16:04:28.673Z,2.83
2022-10-29T16:06:30.657Z,2.53
2022-10-29T16:08:38.265Z,3.00
2022-10-29T16:10:39.851Z,2.58
2022-10-29T16:12:41.917Z,4.10
2022-10-29T16:14:43.541Z,5.03
2022-10-29T16:16:45.151Z,5.03
2022-10-29T16:18:49.133Z,3.10
2022-10-29T16:20:54.601Z,2.90
2022-10-29T16:22:56.280Z,3.17
2022-10-29T16:24:57.969Z,3.10
2022-10-29T16:26:59.592Z,4.18
2022-10-29T16:29:01.263Z,3.17
2022-10-29T16:31:02.889Z,2.58
2022-10-29T16:33:04.685Z,3.78
2022-10-29T16:35:21.079Z,4.75
2022-10-29T16:37:22.787Z,3.38
2022-10-29T16:39:24.414Z,3.53
2022-10-29T16:41:26.076Z,4.03
2022-10-29T16:43:27.759Z,3.78
2022-10-29T16:45:30.022Z,3.65
2022-10-29T16:47:31.715Z,3.80
2022-10-29T16:49:33.316Z,3.25
2022-10-29T16:51:34.904Z,3.13
2022-10-29T16:53:36.555Z,3.20
2022-10-29T16:55:39.963Z,3.40
2022-10-29T16:57:41.649Z,3.17
2022-10-29T16:59:43.284Z,2.67
2022-10-29T17:01:44.866Z,3.90
2022-10-29T17:03:52.322Z,3.38
2022-10-29T17:05:54.005Z,10.32
2022-10-29T17:07:56.221Z,9.60
2022-10-29T17:09:57.898Z,8.05
2022-10-29T17:11:59.530Z,8.25
2022-10-29T17:14:01.179Z,5.38
2022-10-29T17:16:10.118Z,5.13
2022-10-29T17:18:11.768Z,5.43
2022-10-29T17:20:13.569Z,5.93
2022-10-29T17:22:16.218Z,5.05
2022-10-29T17:24:17.833Z,4.45
2022-10-29T17:26:22.232Z,4.57
2022-10-29T17:28:24.919Z,4.18
2022-10-29T17:30:26.543Z,4.47
2022-10-29T17:32:32.575Z,3.63
2022-10-29T17:34:34.503Z,4.00
2022-10-29T17:36:40.906Z,3.42
2022-10-29T17:38:42.629Z,4.28
2022-10-29T17:40:46.195Z,3.08
2022-10-29T17:42:47.898Z,4.95
2022-10-29T17:44:49.529Z,2.58
2022-10-29T17:46:51.101Z,3.70
2022-10-29T17:48:56.214Z,3.85
2022-10-29T17:50:59.890Z,3.83
2022-10-29T17:53:01.788Z,3.83
2022-10-29T17:55:03.576Z,3.75
2022-10-29T17:57:05.166Z,5.03
2022-10-29T17:59:06.786Z,5.28
2022-10-29T18:01:10.242Z,3.50
2022-10-29T18:03:12.349Z,3.83
2022-10-29T18:05:14.166Z,3.00
2022-10-29T18:07:15.765Z,3.30
2022-10-29T18:09:20.358Z,3.58
2022-10-29T18:11:24.993Z,4.40
2022-10-29T18:13:26.571Z,3.67
2022-10-29T18:15:28.515Z,3.58
2022-10-29T18:17:31.593Z,4.15
2022-10-29T18:19:33.190Z,3.33
2022-10-29T18:21:34.841Z,4.13
2022-10-29T18:23:36.445Z,3.50
2022-10-29T18:25:37.996Z,4.03
2022-10-29T18:27:40.480Z,3.00
2022-10-29T18:29:42.169Z,3.83
2022-10-29T18:31:46.914Z,3.35
2022-10-29T18:33:48.899Z,3.58
2022-10-29T18:35:53.380Z,3.70
2022-10-29T18:37:55.289Z,3.08
2022-10-29T18:39:59.023Z,3.72
2022-10-29T18:42:00.695Z,2.67
2022-10-29T18:44:02.604Z,3.83
2022-10-29T18:46:06.455Z,3.40
2022-10-29T18:48:08.201Z,2.92
2022-10-29T18:50:10.178Z,3.65
2022-10-29T18:52:11.850Z,3.63
2022-10-29T18:54:14.682Z,2.60
2022-10-29T18:56:18.512Z,3.60
2022-10-29T18:58:21.080Z,3.38
2022-10-29T19:00:22.712Z,3.30
2022-10-29T19:02:24.454Z,3.67
2022-10-29T19:04:26.406Z,3.53
2022-10-29T19:06:33.336Z,3.47
2022-10-29T19:08:37.402Z,4.20
2022-10-29T19:10:40.874Z,3.42
2022-10-29T19:12:42.541Z,3.35
2022-10-29T19:14:44.288Z,2.97
2022-10-29T19:16:45.897Z,3.13
2022-10-29T19:18:48.162Z,3.22
2022-10-29T19:20:49.780Z,3.83
2022-10-29T19:22:51.415Z,2.85
2022-10-29T19:24:54.461Z,3.47
2022-10-29T19:26:56.081Z,4.10
2022-10-29T19:29:00.270Z,3.53
2022-10-29T19:31:10.658Z,4.15
2022-10-29T19:33:12.284Z,3.38
2022-10-29T19:35:13.936Z,3.05
2022-10-29T19:37:15.553Z,3.83
2022-10-29T19:39:17.171Z,3.88
2022-10-29T19:41:19.480Z,4.57
2022-10-29T19:43:21.260Z,4.85
2022-10-29T19:45:22.864Z,5.47
2022-10-29T19:47:24.484Z,5.22
2022-10-29T19:49:26.181Z,5.20
2022-10-29T19:51:30.576Z,6.10
2022-10-29T19:53:32.486Z,5.38
2022-10-29T19:55:34.049Z,6.10
2022-10-29T19:57:35.658Z,5.95
2022-10-29T19:59:37.284Z,6.25
2022-10-29T20:01:41.633Z,6.18
2022-10-29T20:03:44.150Z,6.40
2022-10-29T20:05:46.492Z,5.93
2022-10-29T20:07:49.252Z,4.97
2022-10-29T20:09:50.888Z,4.70
2022-10-29T20:11:52.501Z,5.38
2022-10-29T20:13:54.131Z,5.80
2022-10-29T20:15:55.896Z,4.60
2022-10-29T20:17:58.059Z,5.10
2022-10-29T20:19:59.907Z,5.10
2022-10-29T20:22:01.574Z,3.83
2022-10-29T20:24:03.369Z,4.35
2022-10-29T20:26:05.241Z,5.25
2022-10-29T20:28:07.004Z,3.63
2022-10-29T20:30:10.570Z,3.38
2022-10-29T20:32:12.239Z,4.15
2022-10-29T20:34:14.025Z,2.50
2022-10-29T20:36:15.941Z,2.80
2022-10-29T20:38:17.633Z,3.35
2022-10-29T20:40:19.328Z,3.10
2022-10-29T20:42:20.928Z,3.40
2022-10-29T20:44:22.545Z,3.08
2022-10-29T20:46:24.849Z,2.88
2022-10-29T20:48:26.555Z,3.15
2022-10-29T20:50:30.957Z,3.05
2022-10-29T20:52:32.602Z,3.55
2022-10-29T20:54:34.341Z,3.60
2022-10-29T20:56:35.993Z,3.13
2022-10-29T20:58:37.692Z,4.00
2022-10-29T21:00:39.495Z,3.13
2022-10-29T21:02:41.332Z,2.83
2022-10-29T21:04:43.197Z,3.40
2022-10-29T21:06:44.746Z,3.67
2022-10-29T21:08:47.371Z,3.80
2022-10-29T21:10:48.976Z,3.47
2022-10-29T21:12:50.615Z,2.70
2022-10-29T21:14:52.239Z,2.28
2022-10-29T21:16:53.875Z,2.75
2022-10-29T21:18:57.756Z,2.75
2022-10-29T21:21:03.378Z,2.72
2022-10-29T21:23:07.684Z,2.65
2022-10-29T21:25:09.748Z,2.70
2022-10-29T21:27:11.535Z,2.42
2022-10-29T21:29:13.150Z,2.58
2022-10-29T21:31:15.042Z,3.10
2022-10-29T21:33:17.001Z,2.85
2022-10-29T21:35:18.844Z,2.72
2022-10-29T21:37:20.690Z,3.08
2022-10-29T21:39:22.655Z,3.00
2022-10-29T21:41:24.734Z,3.15
2022-10-29T21:43:26.605Z,2.70
2022-10-29T21:45:28.630Z,2.83
2022-10-29T21:47:30.514Z,2.92
2022-10-29T21:49:32.343Z,2.17
2022-10-29T21:51:34.331Z,2.70
2022-10-29T21:53:36.290Z,3.42
2022-10-29T21:55:38.151Z,2.92
2022-10-29T21:57:44.394Z,3.50
2022-10-29T21:59:46.482Z,3.08
2022-10-29T22:01:48.550Z,2.38
2022-10-29T22:03:50.494Z,2.88
2022-10-29T22:05:52.437Z,3.20
2022-10-29T22:07:56.333Z,3.50
2022-10-29T22:09:58.395Z,4.93
2022-10-29T22:12:00.244Z,3.15
2022-10-29T22:14:02.420Z,3.42
2022-10-29T22:16:05.509Z,3.88
2022-10-29T22:18:07.485Z,3.33
2022-10-29T22:20:10.146Z,3.65
2022-10-29T22:22:12.224Z,3.70
2022-10-29T22:24:14.063Z,3.65
2022-10-29T22:26:18.033Z,3.50
2022-10-29T22:28:19.933Z,2.95
2022-10-29T22:30:21.862Z,2.85
2022-10-29T22:32:23.643Z,2.50
2022-10-29T22:34:25.358Z,4.00
2022-10-29T22:36:28.299Z,2.30
2022-10-29T22:38:29.932Z,3.92
2022-10-29T22:40:31.891Z,2.55
2022-10-29T22:42:33.652Z,2.75
2022-10-29T22:44:35.401Z,2.70
2022-10-29T22:46:37.132Z,2.75
2022-10-29T22:48:38.887Z,3.13
2022-10-29T22:50:40.743Z,3.40
2022-10-29T22:52:42.970Z,3.63
2022-10-29T22:54:44.861Z,2.28
2022-10-29T22:56:46.522Z,2.97
2022-10-29T22:58:48.319Z,2.92
2022-10-29T23:00:50.463Z,2.95
2022-10-29T23:02:52.213Z,2.70
2022-10-29T23:04:53.986Z,2.80
2022-10-29T23:07:00.798Z,2.92
2022-10-29T23:09:03.867Z,2.78
2022-10-29T23:11:16.753Z,3.20
2022-10-29T23:13:18.676Z,2.90
2022-10-29T23:15:20.562Z,2.95
2022-10-29T23:17:22.416Z,2.80
2022-10-29T23:19:24.590Z,3.38
2022-10-29T23:21:26.553Z,2.95
2022-10-29T23:23:29.333Z,3.70
2022-10-29T23:25:31.166Z,3.58
2022-10-29T23:27:33.131Z,3.65
2022-10-29T23:29:35.198Z,4.13
2022-10-29T23:31:37.164Z,5.03
2022-10-29T23:33:38.850Z,9.70
2022-10-29T23:35:40.435Z,13.05
2022-10-29T23:37:42.092Z,15.35
2022-10-29T23:39:43.809Z,16.45
2022-10-29T23:41:45.359Z,15.77
2022-10-29T23:43:46.983Z,10.98
2022-10-29T23:45:48.761Z,6.90
2022-10-29T23:47:50.398Z,5.53
2022-10-29T23:49:52.094Z,3.85
2022-10-29T23:51:53.685Z,3.97
2022-10-29T23:53:57.537Z,4.10
2022-10-29T23:56:00.387Z,5.03
2022-10-29T23:58:02.701Z,5.72
